Cotes De La Manche — FQBE — position and weather

sailwx.info

Track history (hours):
 
Tides and Currents Weather Stations Pressure Air Temp Water Temp Dewpoint Dewpoint Depression Visibility Wind Speed Wind Dir Waves Ship Positions

Cotes De La Manche

Last reported at 2016-May-30 12:33 UTC. Time now 2016-May-30 18:21 UTC.
Position N 48°20' W 005°05'.

Length 25 m; draft 3.7 m.

Type: Other ship. MMSI: 227091000.

Date/timePositionNaut miles runAvg speedWind from/ knotsBaromVisibWave heightAir tempDewpointWater temp
2016-May-30 12:33N 48°20' W 005°05'1010.1
2016-May-30 11:33N 48°17' W 004°51'4 3.8
2016-May-30 10:33N 48°17' W 004°45'3 3.2
2016-May-30 09:34N 48°18' W 004°41'9 9.0
2016-May-30 08:33N 48°23' W 004°29'0 0.0
2016-May-30 07:33N 48°23' W 004°29'0 0.0
2016-May-30 06:33N 48°23' W 004°29'0 0.0
2016-May-30 05:33N 48°23' W 004°29'0 0.0
2016-May-30 04:33N 48°23' W 004°29'0 0.0
2016-May-30 03:34N 48°23' W 004°29'0 0.0
2016-May-30 02:33N 48°23' W 004°29'0 0.0
2016-May-30 01:33N 48°23' W 004°29'0 0.0
2016-May-30 00:33N 48°23' W 004°29'0 0.0
2016-May-29 23:33N 48°23' W 004°29'0 0.0
2016-May-29 22:34N 48°23' W 004°29'0 0.0
2016-May-29 21:33N 48°23' W 004°29'0 0.0
2016-May-29 20:33N 48°23' W 004°29'0 0.0
2016-May-29 19:33N 48°23' W 004°29'0 0.0
2016-May-29 18:33N 48°23' W 004°29'0 0.0
2016-May-29 17:33N 48°23' W 004°29'0 0.0
2016-May-29 16:33N 48°23' W 004°29'0 0.0
2016-May-29 15:33N 48°23' W 004°29'0 0.0
2016-May-29 14:33N 48°23' W 004°29'0 0.0
2016-May-29 13:34N 48°23' W 004°29'5 5.4
2016-May-29 12:33N 48°20' W 004°35'10 9.7
2016-May-29 11:33N 48°15' W 004°48'12 5.6
2016-May-29 09:26N 48°08' W 005°02'7 8.0
2016-May-29 08:33N 48°08' W 004°52'8 8.0
2016-May-29 07:33N 48°08' W 004°39'8 8.0
2016-May-29 06:34N 48°08' W 004°28'4 3.5
2016-May-29 05:34N 48°06' W 004°32'10 9.6
2016-May-29 04:33N 48°02' W 004°45'4310.0
2016-May-29 00:15N 47°36' W 003°55'810.9
2016-May-28 23:33N 47°36' W 003°43'10 9.7
2016-May-28 22:33N 47°33' W 003°29'1010.1
2016-May-28 21:33N 47°25' W 003°22'1010.2
2016-May-28 20:33N 47°16' W 003°15'1010.0
2016-May-28 19:33N 47°07' W 003°08'46 7.2
2016-May-28 13:15N 46°32' W 002°25'2 2.7
2016-May-28 12:32N 46°31' W 002°23'5 4.6
2016-May-28 11:30N 46°29' W 002°17'7 7.8
2016-May-28 10:33N 46°26' W 002°06'8 8.0
2016-May-28 09:32N 46°24' W 001°55'8 8.0
2016-May-28 08:33N 46°21' W 001°45'8 8.0
2016-May-28 07:33N 46°18' W 001°34'5 2.6
2016-May-28 05:33N 46°15' W 001°27'8 0.7
2016-May-27 18:33N 46°18' W 001°38'13 4.4
2016-May-27 15:31N 46°07' W 001°27'73 2.6
2016-May-26 11:05N 44°54' W 001°22'4 8.0
2016-May-26 10:33N 44°50' W 001°22'8 8.1
2016-May-26 09:33N 44°42' W 001°22'7 7.1
2016-May-26 08:33N 44°41' W 001°32'107 9.4
2016-May-25 21:09N 46°19' W 002°31'610.1
2016-May-25 20:33N 46°25' W 002°27'13 8.6
2016-May-25 19:06N 46°36' W 002°19'4 0.1
2016-May-24 15:27N 46°33' W 002°17'15 3.7
2016-May-24 11:31N 46°19' W 002°09'8 7.7
2016-May-24 10:31N 46°24' W 002°01'5 5.2
2016-May-24 09:33N 46°28' W 001°56'5 5.2
2016-May-24 08:33N 46°33' W 001°58'6 6.3
2016-May-24 07:32N 46°37' W 002°05'5 4.0
2016-May-24 06:22N 46°40' W 002°10'5 4.5
2016-May-24 05:19N 46°43' W 002°16'3 1.9
2016-May-24 03:31N 46°44' W 002°20'16 0.8
2016-May-23 07:24N 46°59' W 002°30'7 7.6
2016-May-23 06:33N 47°04' W 002°24'7 6.9
2016-May-23 05:32N 47°10' W 002°19'6 6.5
2016-May-23 04:33N 47°15' W 002°14'0 0.0
2016-May-23 03:33N 47°15' W 002°14'0 0.0
2016-May-23 02:34N 47°15' W 002°14'0 0.0
2016-May-23 01:32N 47°15' W 002°14'0 0.0
2016-May-23 00:33N 47°15' W 002°14'0 0.0
2016-May-22 23:33N 47°15' W 002°14'0 0.0
2016-May-22 22:33N 47°15' W 002°14'0 0.0
2016-May-22 21:33N 47°15' W 002°14'0 0.0
2016-May-22 20:33N 47°15' W 002°14'0 0.0
2016-May-22 19:33N 47°15' W 002°14'0 0.0
2016-May-22 18:33N 47°15' W 002°14'0 0.0
2016-May-22 17:33N 47°15' W 002°14'4 4.2
2016-May-22 16:33N 47°12' W 002°19'9 8.2
2016-May-22 15:30N 47°13' W 002°32'17 3.4
2016-May-22 10:33N 47°03' W 002°52'8 8.0
2016-May-22 09:33N 47°10' W 002°47'8 7.8
2016-May-22 08:33N 47°17' W 002°42'6 6.4
2016-May-22 07:33N 47°23' W 002°38'8 8.4
2016-May-22 06:34N 47°26' W 002°49'4 4.0
2016-May-22 05:33N 47°27' W 002°55'7 6.7
2016-May-22 04:33N 47°21' W 002°52'0 0.0
2016-May-22 03:33N 47°21' W 002°52'0 0.0
2016-May-22 02:33N 47°21' W 002°52'0 0.0
2016-May-22 01:33N 47°21' W 002°52'0 0.0
2016-May-22 00:33N 47°21' W 002°52'0 0.0
2016-May-21 23:33N 47°21' W 002°52'0 0.0
2016-May-21 22:33N 47°21' W 002°52'0 0.0
2016-May-21 21:33N 47°21' W 002°52'0 0.0
2016-May-21 20:33N 47°21' W 002°52'0 0.0
2016-May-21 19:34N 47°21' W 002°52'0 0.0
2016-May-21 18:33N 47°21' W 002°52'3 2.9
2016-May-21 17:33N 47°18' W 002°53'7 7.1
2016-May-21 16:33N 47°15' W 003°03'8 7.8
2016-May-21 15:33N 47°11' W 003°13'6 5.3
2016-May-21 14:30N 47°09' W 003°20'10 3.2
2016-May-21 11:27N 47°06' W 003°34'6 6.0
2016-May-21 10:30N 47°11' W 003°38'9 8.0
2016-May-21 09:19N 47°19' W 003°45'7 8.0
2016-May-21 08:30N 47°25' W 003°50'50 3.4
2016-May-20 17:32N 47°55' W 004°50'17 4.2
2016-May-20 13:30N 48°11' W 004°55'8 8.0
2016-May-20 12:34N 48°16' W 004°46'  
Track history (hours):
 
Tides and Currents Weather Stations Pressure Air Temp Water Temp Dewpoint Dewpoint Depression Visibility Wind Speed Wind Dir Waves Ship Positions

Cotes De La Manche

Last reported at 2016-May-30 12:33 UTC. Time now 2016-May-30 18:21 UTC.
Position N 48°20' W 005°05'.

Length 25 m; draft 3.7 m.

Type: Other ship. MMSI: 227091000.

Date/timePositionNaut miles runAvg speedWind from/ knotsBaromVisibWave heightAir tempDewpointWater temp
2016-May-30 12:33N 48°20' W 005°05'1010.1
2016-May-30 11:33N 48°17' W 004°51'4 3.8
2016-May-30 10:33N 48°17' W 004°45'3 3.2
2016-May-30 09:34N 48°18' W 004°41'9 9.0
2016-May-30 08:33N 48°23' W 004°29'0 0.0
2016-May-30 07:33N 48°23' W 004°29'0 0.0
2016-May-30 06:33N 48°23' W 004°29'0 0.0
2016-May-30 05:33N 48°23' W 004°29'0 0.0
2016-May-30 04:33N 48°23' W 004°29'0 0.0
2016-May-30 03:34N 48°23' W 004°29'0 0.0
2016-May-30 02:33N 48°23' W 004°29'0 0.0
2016-May-30 01:33N 48°23' W 004°29'0 0.0
2016-May-30 00:33N 48°23' W 004°29'0 0.0
2016-May-29 23:33N 48°23' W 004°29'0 0.0
2016-May-29 22:34N 48°23' W 004°29'0 0.0
2016-May-29 21:33N 48°23' W 004°29'0 0.0
2016-May-29 20:33N 48°23' W 004°29'0 0.0
2016-May-29 19:33N 48°23' W 004°29'0 0.0
2016-May-29 18:33N 48°23' W 004°29'0 0.0
2016-May-29 17:33N 48°23' W 004°29'0 0.0
2016-May-29 16:33N 48°23' W 004°29'0 0.0
2016-May-29 15:33N 48°23' W 004°29'0 0.0
2016-May-29 14:33N 48°23' W 004°29'0 0.0
2016-May-29 13:34N 48°23' W 004°29'5 5.4
2016-May-29 12:33N 48°20' W 004°35'10 9.7
2016-May-29 11:33N 48°15' W 004°48'12 5.6
2016-May-29 09:26N 48°08' W 005°02'7 8.0
2016-May-29 08:33N 48°08' W 004°52'8 8.0
2016-May-29 07:33N 48°08' W 004°39'8 8.0
2016-May-29 06:34N 48°08' W 004°28'4 3.5
2016-May-29 05:34N 48°06' W 004°32'10 9.6
2016-May-29 04:33N 48°02' W 004°45'4310.0
2016-May-29 00:15N 47°36' W 003°55'810.9
2016-May-28 23:33N 47°36' W 003°43'10 9.7
2016-May-28 22:33N 47°33' W 003°29'1010.1
2016-May-28 21:33N 47°25' W 003°22'1010.2
2016-May-28 20:33N 47°16' W 003°15'1010.0
2016-May-28 19:33N 47°07' W 003°08'46 7.2
2016-May-28 13:15N 46°32' W 002°25'2 2.7
2016-May-28 12:32N 46°31' W 002°23'5 4.6
2016-May-28 11:30N 46°29' W 002°17'7 7.8
2016-May-28 10:33N 46°26' W 002°06'8 8.0
2016-May-28 09:32N 46°24' W 001°55'8 8.0
2016-May-28 08:33N 46°21' W 001°45'8 8.0
2016-May-28 07:33N 46°18' W 001°34'5 2.6
2016-May-28 05:33N 46°15' W 001°27'8 0.7
2016-May-27 18:33N 46°18' W 001°38'13 4.4
2016-May-27 15:31N 46°07' W 001°27'73 2.6
2016-May-26 11:05N 44°54' W 001°22'4 8.0
2016-May-26 10:33N 44°50' W 001°22'8 8.1
2016-May-26 09:33N 44°42' W 001°22'7 7.1
2016-May-26 08:33N 44°41' W 001°32'107 9.4
2016-May-25 21:09N 46°19' W 002°31'610.1
2016-May-25 20:33N 46°25' W 002°27'13 8.6
2016-May-25 19:06N 46°36' W 002°19'4 0.1
2016-May-24 15:27N 46°33' W 002°17'15 3.7
2016-May-24 11:31N 46°19' W 002°09'8 7.7
2016-May-24 10:31N 46°24' W 002°01'5 5.2
2016-May-24 09:33N 46°28' W 001°56'5 5.2
2016-May-24 08:33N 46°33' W 001°58'6 6.3
2016-May-24 07:32N 46°37' W 002°05'5 4.0
2016-May-24 06:22N 46°40' W 002°10'5 4.5
2016-May-24 05:19N 46°43' W 002°16'3 1.9
2016-May-24 03:31N 46°44' W 002°20'16 0.8
2016-May-23 07:24N 46°59' W 002°30'7 7.6
2016-May-23 06:33N 47°04' W 002°24'7 6.9
2016-May-23 05:32N 47°10' W 002°19'6 6.5
2016-May-23 04:33N 47°15' W 002°14'0 0.0
2016-May-23 03:33N 47°15' W 002°14'0 0.0
2016-May-23 02:34N 47°15' W 002°14'0 0.0
2016-May-23 01:32N 47°15' W 002°14'0 0.0
2016-May-23 00:33N 47°15' W 002°14'0 0.0
2016-May-22 23:33N 47°15' W 002°14'0 0.0
2016-May-22 22:33N 47°15' W 002°14'0 0.0
2016-May-22 21:33N 47°15' W 002°14'0 0.0
2016-May-22 20:33N 47°15' W 002°14'0 0.0
2016-May-22 19:33N 47°15' W 002°14'0 0.0
2016-May-22 18:33N 47°15' W 002°14'0 0.0
2016-May-22 17:33N 47°15' W 002°14'4 4.2
2016-May-22 16:33N 47°12' W 002°19'9 8.2
2016-May-22 15:30N 47°13' W 002°32'17 3.4
2016-May-22 10:33N 47°03' W 002°52'8 8.0
2016-May-22 09:33N 47°10' W 002°47'8 7.8
2016-May-22 08:33N 47°17' W 002°42'6 6.4
2016-May-22 07:33N 47°23' W 002°38'8 8.4
2016-May-22 06:34N 47°26' W 002°49'4 4.0
2016-May-22 05:33N 47°27' W 002°55'7 6.7
2016-May-22 04:33N 47°21' W 002°52'0 0.0
2016-May-22 03:33N 47°21' W 002°52'0 0.0
2016-May-22 02:33N 47°21' W 002°52'0 0.0
2016-May-22 01:33N 47°21' W 002°52'0 0.0
2016-May-22 00:33N 47°21' W 002°52'0 0.0
2016-May-21 23:33N 47°21' W 002°52'0 0.0
2016-May-21 22:33N 47°21' W 002°52'0 0.0
2016-May-21 21:33N 47°21' W 002°52'0 0.0
2016-May-21 20:33N 47°21' W 002°52'0 0.0
2016-May-21 19:34N 47°21' W 002°52'0 0.0
2016-May-21 18:33N 47°21' W 002°52'3 2.9
2016-May-21 17:33N 47°18' W 002°53'7 7.1
2016-May-21 16:33N 47°15' W 003°03'8 7.8
2016-May-21 15:33N 47°11' W 003°13'6 5.3
2016-May-21 14:30N 47°09' W 003°20'10 3.2
2016-May-21 11:27N 47°06' W 003°34'6 6.0
2016-May-21 10:30N 47°11' W 003°38'9 8.0
2016-May-21 09:19N 47°19' W 003°45'7 8.0
2016-May-21 08:30N 47°25' W 003°50'50 3.4
2016-May-20 17:32N 47°55' W 004°50'17 4.2
2016-May-20 13:30N 48°11' W 004°55'8 8.0
2016-May-20 12:34N 48°16' W 004°46'  

Dump ship's entire track history